Time;durP1;ratioP1;P1;durP2;ratioP2;P2;SDS_P1;SDS_P2;PMS_P1;PMS_P2;Temp;Humidity;BMP_temperature;BMP_pressure;BME280_temperature;BME280_humidity;BME280_pressure;Samples;Min_cycle;Max_cycle;Signal;HPM_P1;HPM_P2
2021/01/02 00:01:13;;;;;;;31.63;19.70;;;;;;;;;;4976368;28;20657;-74
2021/01/02 00:04:31;;;;;;;32.50;20.37;;;;;;;;;;4971297;28;20656;-74
2021/01/02 00:08:00;;;;;;;32.10;19.37;;;;;;;;;;4995666;28;20593;-74
2021/01/02 00:11:31;;;;;;;33.27;20.47;;;;;;;;;;4984054;28;20624;-75
2021/01/02 00:14:51;;;;;;;36.67;20.87;;;;;;;;;;4976441;28;20539;-74
2021/01/02 00:18:03;;;;;;;34.90;20.43;;;;;;;;;;4970973;28;20594;-74
2021/01/02 00:21:15;;;;;;;28.80;18.53;;;;;;;;;;4995673;28;20624;-74
2021/01/02 00:24:32;;;;;;;30.60;19.43;;;;;;;;;;4965412;28;20590;-75
2021/01/02 00:27:43;;;;;;;33.03;19.37;;;;;;;;;;4976442;28;20982;-75
2021/01/02 00:30:53;;;;;;;32.27;20.17;;;;;;;;;;4995094;28;20621;-74
2021/01/02 00:34:12;;;;;;;31.33;19.10;;;;;;;;;;4980199;28;20590;-75
2021/01/02 00:37:44;;;;;;;33.80;20.07;;;;;;;;;;4963857;28;20591;-74
2021/01/02 00:40:49;;;;;;;35.57;20.17;;;;;;;;;;4980198;28;20641;-74
2021/01/02 00:43:53;;;;;;;35.63;20.30;;;;;;;;;;4980882;28;21162;-74
2021/01/02 00:46:59;;;;;;;32.57;18.63;;;;;;;;;;4975724;28;20650;-75
2021/01/02 00:50:06;;;;;;;34.27;20.53;;;;;;;;;;4975525;28;21060;-74
2021/01/02 00:53:34;;;;;;;34.33;20.30;;;;;;;;;;4971633;28;20641;-75
2021/01/02 00:57:01;;;;;;;33.00;19.63;;;;;;;;;;4963782;28;21086;-75
2021/01/02 01:00:07;;;;;;;30.93;19.40;;;;;;;;;;4975029;28;20547;-75
2021/01/02 01:03:27;;;;;;;31.90;19.67;;;;;;;;;;4982722;28;20597;-74
2021/01/02 01:06:37;;;;;;;31.80;18.87;;;;;;;;;;4994822;28;20598;-75
2021/01/02 01:09:47;;;;;;;32.90;20.03;;;;;;;;;;4975136;28;20551;-74
2021/01/02 01:12:58;;;;;;;34.40;20.50;;;;;;;;;;4975568;28;20598;-75
2021/01/02 01:16:03;;;;;;;32.43;20.57;;;;;;;;;;4975308;28;20539;-74
2021/01/02 01:19:10;;;;;;;31.53;19.30;;;;;;;;;;4975229;28;20543;-74
2021/01/02 01:22:16;;;;;;;32.23;19.63;;;;;;;;;;4975308;28;20675;-75
2021/01/02 01:25:39;;;;;;;34.87;19.70;;;;;;;;;;4963276;28;21102;-74
2021/01/02 01:28:47;;;;;;;30.67;18.73;;;;;;;;;;4974327;28;20559;-74
2021/01/02 01:31:58;;;;;;;31.33;19.13;;;;;;;;;;4963024;28;20636;-74
2021/01/02 01:35:03;;;;;;;30.10;19.07;;;;;;;;;;4975003;28;20543;-74
2021/01/02 01:38:11;;;;;;;34.13;20.57;;;;;;;;;;4974926;28;20538;-75
2021/01/02 01:41:17;;;;;;;31.60;19.73;;;;;;;;;;4974855;28;20639;-74
2021/01/02 01:44:39;;;;;;;32.57;19.00;;;;;;;;;;4982061;28;21168;-74
2021/01/02 01:47:56;;;;;;;31.03;19.03;;;;;;;;;;4974582;28;20610;-75
2021/01/02 01:51:32;;;;;;;28.60;18.27;;;;;;;;;;4974765;28;21210;-74
2021/01/02 01:55:07;;;;;;;28.07;16.97;;;;;;;;;;4992176;28;20620;-74
2021/01/02 01:58:12;;;;;;;30.67;18.93;;;;;;;;;;4969243;28;20582;-74
2021/01/02 02:01:23;;;;;;;34.80;19.47;;;;;;;;;;4974480;28;20621;-75
2021/01/02 02:04:49;;;;;;;34.70;20.07;;;;;;;;;;4990953;28;20617;-75
2021/01/02 02:08:09;;;;;;;33.37;20.20;;;;;;;;;;4981575;28;20629;-74
2021/01/02 02:11:37;;;;;;;31.33;17.77;;;;;;;;;;4993969;28;20625;-75
2021/01/02 02:14:59;;;;;;;33.87;18.93;;;;;;;;;;4964523;28;20625;-75
2021/01/02 02:18:07;;;;;;;30.43;18.67;;;;;;;;;;4977273;28;21200;-74
2021/01/02 02:21:26;;;;;;;32.23;18.63;;;;;;;;;;4974311;28;20622;-74
2021/01/02 02:24:32;;;;;;;30.73;19.07;;;;;;;;;;4974184;28;21136;-74
2021/01/02 02:27:40;;;;;;;28.27;17.43;;;;;;;;;;4987125;28;20629;-74
2021/01/02 02:30:47;;;;;;;33.47;18.97;;;;;;;;;;4963337;28;20650;-74
2021/01/02 02:33:57;;;;;;;32.40;18.33;;;;;;;;;;4974111;28;20883;-74
2021/01/02 02:37:01;;;;;;;30.33;18.90;;;;;;;;;;4982352;28;20600;-75
2021/01/02 02:40:09;;;;;;;28.47;17.70;;;;;;;;;;4993378;28;20608;-75
2021/01/02 02:43:15;;;;;;;32.33;18.47;;;;;;;;;;4981133;28;20605;-75
2021/01/02 02:46:25;;;;;;;28.03;17.03;;;;;;;;;;4991661;28;20621;-74
2021/01/02 02:49:31;;;;;;;31.97;17.13;;;;;;;;;;4970055;28;20605;-74
2021/01/02 02:52:40;;;;;;;26.43;17.20;;;;;;;;;;4981341;28;20628;-75
2021/01/02 02:55:44;;;;;;;26.83;16.97;;;;;;;;;;4983405;28;20545;-75
2021/01/02 02:58:49;;;;;;;25.63;16.50;;;;;;;;;;4977616;28;20955;-75
2021/01/02 03:01:53;;;;;;;25.33;16.77;;;;;;;;;;4977468;28;20629;-74
2021/01/02 03:04:57;;;;;;;29.20;17.07;;;;;;;;;;4977429;28;20543;-74
2021/01/02 03:08:02;;;;;;;26.33;16.77;;;;;;;;;;4997043;28;20621;-75
2021/01/02 03:11:07;;;;;;;25.50;16.00;;;;;;;;;;4996850;28;20660;-75
2021/01/02 03:14:11;;;;;;;28.10;16.80;;;;;;;;;;4985024;28;20546;-74
2021/01/02 03:17:15;;;;;;;27.77;15.67;;;;;;;;;;4972037;28;20598;-74
2021/01/02 03:20:20;;;;;;;25.27;15.47;;;;;;;;;;4965472;28;20542;-74
2021/01/02 03:23:24;;;;;;;23.73;15.03;;;;;;;;;;4977311;28;20562;-74
2021/01/02 03:26:28;;;;;;;24.23;15.10;;;;;;;;;;4982976;28;20589;-74
2021/01/02 03:29:32;;;;;;;22.93;14.07;;;;;;;;;;4991484;28;20590;-75
2021/01/02 03:32:38;;;;;;;22.27;13.20;;;;;;;;;;4965061;28;20621;-75
2021/01/02 03:35:42;;;;;;;23.03;14.70;;;;;;;;;;4977195;28;20547;-75
2021/01/02 03:38:55;;;;;;;22.83;14.50;;;;;;;;;;4965142;28;21115;-75
2021/01/02 03:41:59;;;;;;;21.60;13.53;;;;;;;;;;4991683;28;21023;-74
2021/01/02 03:45:08;;;;;;;26.40;14.50;;;;;;;;;;4984433;28;20533;-74
2021/01/02 03:48:12;;;;;;;21.07;13.30;;;;;;;;;;4996203;28;20641;-75
2021/01/02 03:51:24;;;;;;;21.33;13.87;;;;;;;;;;4966077;28;20653;-75
2021/01/02 03:54:29;;;;;;;21.57;13.40;;;;;;;;;;5037050;23;20704;-84
2021/01/02 03:57:33;;;;;;;21.77;13.83;;;;;;;;;;5009606;28;20606;-84
2021/01/02 04:00:39;;;;;;;21.27;13.63;;;;;;;;;;5007102;28;20583;-84
2021/01/02 04:03:44;;;;;;;20.10;13.40;;;;;;;;;;5015665;28;20640;-84
2021/01/02 04:06:51;;;;;;;23.83;13.97;;;;;;;;;;5004367;28;20549;-85
2021/01/02 04:09:55;;;;;;;22.20;13.43;;;;;;;;;;5011469;28;20640;-84
2021/01/02 04:12:59;;;;;;;20.73;13.83;;;;;;;;;;5023790;28;20639;-85
2021/01/02 04:16:04;;;;;;;20.03;13.50;;;;;;;;;;4976683;28;20631;-84
2021/01/02 04:19:09;;;;;;;21.83;14.10;;;;;;;;;;4975231;28;21094;-84
2021/01/02 04:22:13;;;;;;;23.10;14.43;;;;;;;;;;4974375;28;20624;-84
2021/01/02 04:25:17;;;;;;;24.50;13.43;;;;;;;;;;4974077;28;20557;-85
2021/01/02 04:28:22;;;;;;;22.03;13.43;;;;;;;;;;4993233;28;20600;-86
2021/01/02 04:31:37;;;;;;;21.00;12.87;;;;;;;;;;5022424;28;20598;-86
2021/01/02 04:34:41;;;;;;;20.33;12.07;;;;;;;;;;5012054;28;21247;-85
2021/01/02 04:37:46;;;;;;;23.30;12.37;;;;;;;;;;5012589;28;20543;-87
2021/01/02 04:40:55;;;;;;;23.33;12.97;;;;;;;;;;4974368;28;20937;-84
2021/01/02 04:44:00;;;;;;;21.57;13.50;;;;;;;;;;4974374;28;20632;-84
2021/01/02 04:47:06;;;;;;;20.77;12.77;;;;;;;;;;4987983;28;20652;-85
2021/01/02 04:50:12;;;;;;;22.27;13.57;;;;;;;;;;4984400;28;20561;-86
2021/01/02 04:53:16;;;;;;;19.83;12.67;;;;;;;;;;4961431;28;21233;-87
2021/01/02 04:56:21;;;;;;;24.50;13.23;;;;;;;;;;4984433;28;20549;-82
2021/01/02 04:59:28;;;;;;;24.03;13.47;;;;;;;;;;5003845;28;20584;-86
2021/01/02 05:02:34;;;;;;;21.53;14.07;;;;;;;;;;4992375;28;20556;-82
2021/01/02 05:05:39;;;;;;;20.47;12.50;;;;;;;;;;4980950;28;20544;-85
2021/01/02 05:08:44;;;;;;;21.93;12.57;;;;;;;;;;5003500;28;20631;-85
2021/01/02 05:11:48;;;;;;;19.27;13.13;;;;;;;;;;5023152;28;20555;-85
2021/01/02 05:14:58;;;;;;;18.30;11.63;;;;;;;;;;5022885;28;20658;-86
2021/01/02 05:18:03;;;;;;;23.37;14.23;;;;;;;;;;4999618;28;20564;-84
2021/01/02 05:21:07;;;;;;;21.10;13.17;;;;;;;;;;5000522;28;20567;-86
2021/01/02 05:24:15;;;;;;;20.50;12.40;;;;;;;;;;5000160;28;20622;-84
2021/01/02 05:27:19;;;;;;;20.07;12.27;;;;;;;;;;4999943;28;20603;-86
2021/01/02 05:30:25;;;;;;;19.47;12.63;;;;;;;;;;4990454;28;20597;-84
2021/01/02 05:33:29;;;;;;;21.10;12.60;;;;;;;;;;4969072;28;20654;-84
2021/01/02 05:36:34;;;;;;;18.07;12.20;;;;;;;;;;4992213;28;21097;-85
2021/01/02 05:39:43;;;;;;;22.53;12.27;;;;;;;;;;4998717;28;20594;-84
2021/01/02 05:42:50;;;;;;;21.57;13.63;;;;;;;;;;5011497;28;20555;-86
2021/01/02 05:45:55;;;;;;;21.57;12.80;;;;;;;;;;4999377;28;20591;-87
2021/01/02 05:48:59;;;;;;;21.13;12.90;;;;;;;;;;5020753;28;20599;-83
2021/01/02 05:52:05;;;;;;;20.87;12.80;;;;;;;;;;5011151;28;21219;-85
2021/01/02 05:55:10;;;;;;;24.33;13.07;;;;;;;;;;5011571;28;20970;-84
2021/01/02 05:58:18;;;;;;;20.97;12.80;;;;;;;;;;4999809;28;20610;-86
2021/01/02 06:01:27;;;;;;;21.70;13.50;;;;;;;;;;4972757;28;21186;-85
2021/01/02 06:04:52;;;;;;;20.13;12.57;;;;;;;;;;4988162;28;21007;-85
2021/01/02 06:07:56;;;;;;;23.30;12.83;;;;;;;;;;4990952;28;20959;-85
2021/01/02 06:11:03;;;;;;;21.97;13.30;;;;;;;;;;4982875;28;20552;-85
2021/01/02 06:14:08;;;;;;;23.23;14.10;;;;;;;;;;4982910;28;20627;-85
2021/01/02 06:17:15;;;;;;;30.13;18.27;;;;;;;;;;4991339;28;20960;-85
2021/01/02 06:20:19;;;;;;;24.53;14.70;;;;;;;;;;4992856;28;20591;-85
2021/01/02 06:23:24;;;;;;;21.37;12.33;;;;;;;;;;4977317;28;20656;-86
2021/01/02 06:26:28;;;;;;;21.07;12.37;;;;;;;;;;4972989;28;20568;-85
2021/01/02 06:29:32;;;;;;;22.03;13.03;;;;;;;;;;4975841;28;20600;-85
2021/01/02 06:32:43;;;;;;;19.60;13.07;;;;;;;;;;4988253;28;21083;-85
2021/01/02 06:35:47;;;;;;;21.70;12.90;;;;;;;;;;4987475;28;20561;-85
2021/01/02 06:39:20;;;;;;;22.87;12.90;;;;;;;;;;4964398;28;21111;-84
2021/01/02 06:42:31;;;;;;;20.40;12.27;;;;;;;;;;4994908;28;20584;-84
2021/01/02 06:45:38;;;;;;;21.30;12.87;;;;;;;;;;5013525;28;20599;-84
2021/01/02 06:48:43;;;;;;;20.77;13.10;;;;;;;;;;5014247;28;21176;-84
2021/01/02 06:51:50;;;;;;;21.27;12.80;;;;;;;;;;4991281;28;21182;-84
2021/01/02 06:55:21;;;;;;;20.60;12.93;;;;;;;;;;4996632;28;20652;-85
2021/01/02 06:58:42;;;;;;;20.47;12.50;;;;;;;;;;4986040;28;20540;-85
2021/01/02 07:01:46;;;;;;;20.07;12.13;;;;;;;;;;5024576;28;21180;-84
2021/01/02 07:04:50;;;;;;;18.80;11.83;;;;;;;;;;4993592;28;20638;-85
2021/01/02 07:07:54;;;;;;;24.20;13.93;;;;;;;;;;4983069;28;20607;-84
2021/01/02 07:11:30;;;;;;;20.77;12.60;;;;;;;;;;5021435;28;20946;-86
2021/01/02 07:14:35;;;;;;;21.73;12.30;;;;;;;;;;4990689;28;20639;-87
2021/01/02 07:17:39;;;;;;;23.83;14.13;;;;;;;;;;4980028;28;21182;-87
2021/01/02 07:20:44;;;;;;;22.90;13.03;;;;;;;;;;4997062;28;20623;-85
2021/01/02 07:23:48;;;;;;;22.37;13.30;;;;;;;;;;4975268;28;20656;-85
2021/01/02 07:27:03;;;;;;;21.00;12.63;;;;;;;;;;4990730;28;21723;-85
2021/01/02 07:30:11;;;;;;;22.17;13.07;;;;;;;;;;4985587;28;20588;-84
2021/01/02 07:33:15;;;;;;;22.03;12.50;;;;;;;;;;4982120;28;21249;-84
2021/01/02 07:36:19;;;;;;;19.77;11.97;;;;;;;;;;4982614;28;20571;-84
2021/01/02 07:39:24;;;;;;;19.93;13.17;;;;;;;;;;5001981;28;20574;-84
2021/01/02 07:42:30;;;;;;;21.57;11.63;;;;;;;;;;5011549;28;20627;-84
2021/01/02 07:45:35;;;;;;;21.63;11.90;;;;;;;;;;4993517;28;20631;-83
2021/01/02 07:48:39;;;;;;;20.37;12.73;;;;;;;;;;4985764;28;20628;-83
2021/01/02 07:51:47;;;;;;;32.87;19.63;;;;;;;;;;4983787;28;20615;-84
2021/01/02 07:54:51;;;;;;;164.37;58.60;;;;;;;;;;5006777;28;20658;-83
2021/01/02 07:57:55;;;;;;;61.57;27.63;;;;;;;;;;4981742;28;20601;-84
2021/01/02 08:01:09;;;;;;;27.20;15.37;;;;;;;;;;4995411;28;20594;-83
2021/01/02 08:04:14;;;;;;;28.50;15.83;;;;;;;;;;5008293;28;20650;-83
2021/01/02 08:07:19;;;;;;;19.83;14.40;;;;;;;;;;5014833;28;20615;-84
2021/01/02 08:10:25;;;;;;;29.07;16.93;;;;;;;;;;5000514;28;20615;-84
2021/01/02 08:13:29;;;;;;;25.43;14.77;;;;;;;;;;4991381;28;20648;-84
2021/01/02 08:16:33;;;;;;;25.80;16.73;;;;;;;;;;5007206;28;20572;-83
2021/01/02 08:19:52;;;;;;;30.30;16.67;;;;;;;;;;5014612;28;20618;-83
2021/01/02 08:22:57;;;;;;;34.63;18.20;;;;;;;;;;4981316;28;21236;-83
2021/01/02 08:26:01;;;;;;;32.60;18.70;;;;;;;;;;4992536;28;21173;-84
2021/01/02 08:29:06;;;;;;;32.00;18.67;;;;;;;;;;4995644;28;20635;-85
2021/01/02 08:32:11;;;;;;;35.73;19.37;;;;;;;;;;5008447;28;20595;-84
2021/01/02 08:35:18;;;;;;;39.00;20.53;;;;;;;;;;5012421;28;20543;-84
2021/01/02 08:38:27;;;;;;;41.13;20.73;;;;;;;;;;5009504;28;20587;-84
2021/01/02 08:41:32;;;;;;;47.47;25.07;;;;;;;;;;5016863;28;20592;-83
2021/01/02 08:44:42;;;;;;;39.10;21.40;;;;;;;;;;4996493;28;20650;-84
2021/01/02 08:47:50;;;;;;;38.10;20.77;;;;;;;;;;4973627;28;21193;-83
2021/01/02 08:50:54;;;;;;;37.00;21.43;;;;;;;;;;4988656;28;20587;-85
2021/01/02 08:54:13;;;;;;;40.27;20.93;;;;;;;;;;4972245;28;20652;-85
2021/01/02 08:57:28;;;;;;;35.20;20.03;;;;;;;;;;4982073;28;20605;-85
2021/01/02 09:00:32;;;;;;;42.10;21.93;;;;;;;;;;5003527;28;20936;-85
2021/01/02 09:03:36;;;;;;;41.33;22.10;;;;;;;;;;4977226;28;20655;-85
2021/01/02 09:06:41;;;;;;;37.57;21.00;;;;;;;;;;4999162;28;20627;-85
2021/01/02 09:09:45;;;;;;;41.23;21.90;;;;;;;;;;5013312;28;21319;-85
2021/01/02 09:13:02;;;;;;;41.60;22.93;;;;;;;;;;5022709;28;21104;-85
2021/01/02 09:16:16;;;;;;;43.50;22.27;;;;;;;;;;5022576;28;20659;-84
2021/01/02 09:19:24;;;;;;;42.13;22.23;;;;;;;;;;5003859;28;20596;-85
2021/01/02 09:22:28;;;;;;;41.87;21.50;;;;;;;;;;4985446;28;20646;-85
2021/01/02 09:25:33;;;;;;;36.43;20.47;;;;;;;;;;4983027;28;20960;-85
2021/01/02 09:28:41;;;;;;;39.87;21.70;;;;;;;;;;4982060;28;20687;-85
2021/01/02 09:31:46;;;;;;;37.83;19.87;;;;;;;;;;4984753;28;20595;-85
2021/01/02 09:34:50;;;;;;;48.37;23.67;;;;;;;;;;5009955;28;21030;-85
2021/01/02 09:37:54;;;;;;;43.03;23.80;;;;;;;;;;4990149;28;20604;-85
2021/01/02 09:40:58;;;;;;;45.07;23.37;;;;;;;;;;4992239;28;20585;-85
2021/01/02 09:44:03;;;;;;;48.33;23.67;;;;;;;;;;4987373;28;20662;-85
2021/01/02 09:47:07;;;;;;;42.37;23.63;;;;;;;;;;4991193;28;20563;-85
2021/01/02 09:50:11;;;;;;;43.80;23.30;;;;;;;;;;4984648;28;20643;-85
2021/01/02 09:53:16;;;;;;;44.10;22.93;;;;;;;;;;4974093;28;20667;-85
2021/01/02 09:56:21;;;;;;;44.03;23.70;;;;;;;;;;5025716;28;20598;-85
2021/01/02 09:59:25;;;;;;;41.40;22.63;;;;;;;;;;4999218;28;20687;-85
2021/01/02 10:02:30;;;;;;;48.60;22.87;;;;;;;;;;4996658;28;20629;-86
2021/01/02 10:05:35;;;;;;;47.97;23.87;;;;;;;;;;5001968;28;20581;-86
2021/01/02 10:08:39;;;;;;;51.63;25.23;;;;;;;;;;5003873;28;20596;-86
2021/01/02 10:11:44;;;;;;;44.20;23.53;;;;;;;;;;5003003;28;20600;-86
2021/01/02 10:14:48;;;;;;;44.00;24.23;;;;;;;;;;4997741;28;20654;-86
2021/01/02 10:17:52;;;;;;;44.30;23.87;;;;;;;;;;5014792;28;20645;-86
2021/01/02 10:20:56;;;;;;;42.50;23.00;;;;;;;;;;5010308;28;20614;-86
2021/01/02 10:24:00;;;;;;;41.87;22.80;;;;;;;;;;4991257;28;20654;-87
2021/01/02 10:27:06;;;;;;;42.80;22.37;;;;;;;;;;5003252;28;20627;-86
2021/01/02 10:30:12;;;;;;;40.27;21.37;;;;;;;;;;5002913;28;20636;-86
2021/01/02 10:33:16;;;;;;;46.27;23.93;;;;;;;;;;5011096;28;20666;-86
2021/01/02 10:36:20;;;;;;;44.80;22.60;;;;;;;;;;4986256;28;20626;-85
2021/01/02 10:39:25;;;;;;;42.77;22.30;;;;;;;;;;4980025;28;20596;-86
2021/01/02 10:42:30;;;;;;;39.33;21.83;;;;;;;;;;5003590;28;20590;-85
2021/01/02 10:45:34;;;;;;;41.20;21.97;;;;;;;;;;4997418;28;20594;-86
2021/01/02 10:48:38;;;;;;;44.03;21.93;;;;;;;;;;4980720;28;20583;-85
2021/01/02 10:51:45;;;;;;;38.83;21.87;;;;;;;;;;4971241;28;21100;-85
2021/01/02 10:54:50;;;;;;;46.17;23.57;;;;;;;;;;4963714;28;20675;-83
2021/01/02 10:57:54;;;;;;;42.27;22.57;;;;;;;;;;5014566;28;20607;-85
2021/01/02 11:00:58;;;;;;;40.80;23.13;;;;;;;;;;4978138;28;20627;-84
2021/01/02 11:04:03;;;;;;;43.67;23.60;;;;;;;;;;5002285;28;20629;-85
2021/01/02 11:07:09;;;;;;;42.73;23.60;;;;;;;;;;4998262;28;20599;-86
2021/01/02 11:10:13;;;;;;;46.73;23.90;;;;;;;;;;5011186;28;21000;-86
2021/01/02 11:13:17;;;;;;;53.60;27.30;;;;;;;;;;4990974;28;20612;-86
2021/01/02 11:16:29;;;;;;;45.03;24.33;;;;;;;;;;4985079;28;20541;-86
2021/01/02 11:19:34;;;;;;;45.27;24.70;;;;;;;;;;4985996;28;20616;-84
2021/01/02 11:22:39;;;;;;;41.63;21.47;;;;;;;;;;5014147;28;20894;-84
2021/01/02 11:25:43;;;;;;;66.73;29.47;;;;;;;;;;4974862;28;20896;-85
2021/01/02 11:28:47;;;;;;;47.93;25.90;;;;;;;;;;5016875;28;20591;-85
2021/01/02 11:31:52;;;;;;;40.13;21.33;;;;;;;;;;5025415;28;20532;-85
2021/01/02 11:34:57;;;;;;;42.77;23.97;;;;;;;;;;5013602;28;20611;-85
2021/01/02 11:38:01;;;;;;;41.17;22.80;;;;;;;;;;5016241;28;20599;-85
2021/01/02 11:41:05;;;;;;;37.67;23.23;;;;;;;;;;5002054;28;20622;-85
2021/01/02 11:44:12;;;;;;;38.53;22.60;;;;;;;;;;5001926;28;20651;-86
2021/01/02 11:47:16;;;;;;;39.23;22.10;;;;;;;;;;5007732;28;20627;-86
2021/01/02 11:50:20;;;;;;;44.33;23.17;;;;;;;;;;5014004;28;20621;-86
2021/01/02 11:53:24;;;;;;;41.63;24.27;;;;;;;;;;5010975;28;21486;-86
2021/01/02 11:56:29;;;;;;;40.30;21.70;;;;;;;;;;4974828;28;20636;-86
2021/01/02 11:59:34;;;;;;;38.40;22.30;;;;;;;;;;4967281;28;20596;-87
2021/01/02 12:02:41;;;;;;;39.70;20.87;;;;;;;;;;4964498;28;20552;-88
2021/01/02 12:05:45;;;;;;;39.33;20.93;;;;;;;;;;5020489;28;20962;-85
2021/01/02 12:08:49;;;;;;;41.13;22.53;;;;;;;;;;4998200;28;20627;-86
2021/01/02 12:11:55;;;;;;;34.63;20.30;;;;;;;;;;5005306;28;20611;-86
2021/01/02 12:14:59;;;;;;;37.50;21.57;;;;;;;;;;5013443;28;20646;-86
2021/01/02 12:18:03;;;;;;;37.63;20.43;;;;;;;;;;5013199;28;20560;-86
2021/01/02 12:21:07;;;;;;;40.30;22.07;;;;;;;;;;5012906;28;20626;-86
2021/01/02 12:24:11;;;;;;;34.70;21.20;;;;;;;;;;5008927;28;20655;-86
2021/01/02 12:27:16;;;;;;;36.83;21.00;;;;;;;;;;5003090;28;21180;-86
2021/01/02 12:30:20;;;;;;;41.57;22.37;;;;;;;;;;5012917;28;20642;-86
2021/01/02 12:33:24;;;;;;;46.97;23.07;;;;;;;;;;5024558;28;20618;-86
2021/01/02 12:36:32;;;;;;;48.63;24.37;;;;;;;;;;4963446;28;20545;-87
2021/01/02 12:39:37;;;;;;;52.07;26.00;;;;;;;;;;4990254;28;20603;-86
2021/01/02 12:42:41;;;;;;;49.57;25.00;;;;;;;;;;5013099;28;20555;-87
2021/01/02 12:45:45;;;;;;;43.57;22.07;;;;;;;;;;4988445;28;20636;-86
2021/01/02 12:48:50;;;;;;;47.97;23.57;;;;;;;;;;4975246;28;20541;-85
2021/01/02 12:51:56;;;;;;;48.43;23.73;;;;;;;;;;4992356;28;20580;-85
2021/01/02 12:55:00;;;;;;;40.57;22.37;;;;;;;;;;4982184;28;20671;-84
2021/01/02 12:58:04;;;;;;;48.10;23.67;;;;;;;;;;5023040;28;20622;-85
2021/01/02 13:01:09;;;;;;;58.57;27.50;;;;;;;;;;5023309;28;20617;-84
2021/01/02 13:04:14;;;;;;;41.63;21.23;;;;;;;;;;5011159;28;20633;-84
2021/01/02 13:07:20;;;;;;;41.23;21.00;;;;;;;;;;5012093;28;20630;-86
2021/01/02 13:10:24;;;;;;;43.37;21.13;;;;;;;;;;5011916;28;20599;-85
2021/01/02 13:13:28;;;;;;;44.40;21.33;;;;;;;;;;5011584;28;21005;-83
2021/01/02 13:16:32;;;;;;;38.47;19.27;;;;;;;;;;5004912;28;20599;-86
2021/01/02 13:19:37;;;;;;;39.93;19.90;;;;;;;;;;4962122;28;20553;-85
2021/01/02 13:22:41;;;;;;;39.07;19.83;;;;;;;;;;4961720;28;20548;-85
2021/01/02 13:25:46;;;;;;;36.23;18.23;;;;;;;;;;5020893;28;20610;-85
2021/01/02 13:28:50;;;;;;;41.33;20.60;;;;;;;;;;5003571;28;20608;-86
2021/01/02 13:31:56;;;;;;;39.33;19.30;;;;;;;;;;5003338;28;20619;-86
2021/01/02 13:35:00;;;;;;;36.93;18.07;;;;;;;;;;4985358;28;20638;-85
2021/01/02 13:38:05;;;;;;;33.33;18.27;;;;;;;;;;5011802;28;20547;-85
2021/01/02 13:41:09;;;;;;;38.93;19.27;;;;;;;;;;5011412;28;21165;-82
2021/01/02 13:44:14;;;;;;;41.43;20.27;;;;;;;;;;5021710;28;20994;-84
2021/01/02 13:47:20;;;;;;;37.17;19.70;;;;;;;;;;4999308;28;20558;-83
2021/01/02 13:50:26;;;;;;;39.13;19.80;;;;;;;;;;5021708;28;20715;-82
2021/01/02 13:53:30;;;;;;;44.50;20.43;;;;;;;;;;5010046;28;21259;-82
2021/01/02 13:56:35;;;;;;;40.87;18.83;;;;;;;;;;5014840;28;21173;-83
2021/01/02 13:59:39;;;;;;;38.73;18.93;;;;;;;;;;4990980;28;20595;-82
2021/01/02 14:02:44;;;;;;;44.40;22.10;;;;;;;;;;4980096;28;21102;-82
2021/01/02 14:05:48;;;;;;;46.47;20.67;;;;;;;;;;5013887;28;20650;-83
2021/01/02 14:08:52;;;;;;;41.67;20.47;;;;;;;;;;4991061;28;20900;-82
2021/01/02 14:11:58;;;;;;;34.20;17.50;;;;;;;;;;4960434;28;20693;-83
2021/01/02 14:15:05;;;;;;;37.30;18.07;;;;;;;;;;4979037;28;20600;-82
2021/01/02 14:18:09;;;;;;;37.40;19.17;;;;;;;;;;4993293;28;20611;-82
2021/01/02 14:21:15;;;;;;;36.60;17.67;;;;;;;;;;5010626;28;20623;-82
2021/01/02 14:24:20;;;;;;;41.83;18.07;;;;;;;;;;4999232;28;20626;-82
2021/01/02 14:27:24;;;;;;;44.27;18.20;;;;;;;;;;5003436;28;20603;-83
2021/01/02 14:30:29;;;;;;;41.63;19.17;;;;;;;;;;5010628;28;20722;-82
2021/01/02 14:33:33;;;;;;;38.13;17.53;;;;;;;;;;5010520;28;20642;-85
2021/01/02 14:36:37;;;;;;;36.53;18.77;;;;;;;;;;4992375;28;20596;-84
2021/01/02 14:39:41;;;;;;;34.80;16.70;;;;;;;;;;5006085;28;20630;-82
2021/01/02 14:42:45;;;;;;;39.60;17.97;;;;;;;;;;4998737;28;20610;-83
2021/01/02 14:45:50;;;;;;;42.67;18.17;;;;;;;;;;4996152;28;20979;-82
2021/01/02 14:48:54;;;;;;;41.83;19.13;;;;;;;;;;5001314;28;20591;-84
2021/01/02 14:51:59;;;;;;;41.77;18.73;;;;;;;;;;5014166;28;21006;-84
2021/01/02 14:55:03;;;;;;;43.13;18.57;;;;;;;;;;5014186;28;20614;-83
2021/01/02 14:58:08;;;;;;;44.67;19.40;;;;;;;;;;4968917;28;20587;-83
2021/01/02 15:01:12;;;;;;;42.17;19.70;;;;;;;;;;4994493;28;20560;-84
2021/01/02 15:04:16;;;;;;;43.93;21.67;;;;;;;;;;4974387;28;20640;-82
2021/01/02 15:07:21;;;;;;;44.73;20.30;;;;;;;;;;5001017;28;20591;-83
2021/01/02 15:10:26;;;;;;;47.00;20.97;;;;;;;;;;4983276;28;21090;-83
2021/01/02 15:13:30;;;;;;;44.53;19.83;;;;;;;;;;4994137;28;20631;-84
2021/01/02 15:16:34;;;;;;;36.67;18.87;;;;;;;;;;5006220;28;20595;-84
2021/01/02 15:19:39;;;;;;;44.30;20.53;;;;;;;;;;4983015;28;20611;-83
2021/01/02 15:22:43;;;;;;;44.70;21.13;;;;;;;;;;5004950;28;20614;-83
2021/01/02 15:25:48;;;;;;;44.80;19.33;;;;;;;;;;4986854;28;20594;-83
2021/01/02 15:28:52;;;;;;;44.30;20.30;;;;;;;;;;5002285;28;20547;-83
2021/01/02 15:31:56;;;;;;;42.03;19.77;;;;;;;;;;4988563;28;20640;-84
2021/01/02 15:35:00;;;;;;;42.17;20.00;;;;;;;;;;4974374;28;20640;-83
2021/01/02 15:38:08;;;;;;;43.57;21.00;;;;;;;;;;5006528;28;20625;-84
2021/01/02 15:41:12;;;;;;;54.03;23.27;;;;;;;;;;4994383;28;20590;-84
2021/01/02 15:44:18;;;;;;;53.13;23.47;;;;;;;;;;5012337;28;20633;-84
2021/01/02 15:47:22;;;;;;;46.93;20.70;;;;;;;;;;4973470;28;20565;-86
2021/01/02 15:50:27;;;;;;;46.67;20.70;;;;;;;;;;4977620;28;20604;-84
2021/01/02 15:53:31;;;;;;;46.83;20.70;;;;;;;;;;4985352;28;21248;-84
2021/01/02 15:56:36;;;;;;;59.03;22.80;;;;;;;;;;5019292;23;21048;-82
2021/01/02 15:59:40;;;;;;;48.47;21.83;;;;;;;;;;5023314;28;20587;-82
2021/01/02 16:02:44;;;;;;;48.70;21.57;;;;;;;;;;5022968;28;20946;-83
2021/01/02 16:05:53;;;;;;;44.97;21.23;;;;;;;;;;5012774;28;20629;-82
2021/01/02 16:08:57;;;;;;;47.30;21.23;;;;;;;;;;5035979;28;20688;-82
2021/01/02 16:12:08;;;;;;;46.27;20.93;;;;;;;;;;4962122;28;21190;-82
2021/01/02 16:15:12;;;;;;;43.43;21.17;;;;;;;;;;4973035;28;20636;-82
2021/01/02 16:18:17;;;;;;;48.60;22.93;;;;;;;;;;4999017;28;20596;-82
2021/01/02 16:21:23;;;;;;;47.07;21.37;;;;;;;;;;5008228;28;20622;-82
2021/01/02 16:24:28;;;;;;;44.23;20.87;;;;;;;;;;5023596;28;20551;-82
2021/01/02 16:27:32;;;;;;;44.10;20.93;;;;;;;;;;5012738;28;20543;-82
2021/01/02 16:30:37;;;;;;;40.77;20.00;;;;;;;;;;5013116;28;20603;-83
2021/01/02 16:33:45;;;;;;;44.83;21.17;;;;;;;;;;4995448;28;20637;-83
2021/01/02 16:36:50;;;;;;;45.80;21.77;;;;;;;;;;5003404;28;20966;-83
2021/01/02 16:39:56;;;;;;;43.60;20.97;;;;;;;;;;5009974;28;20599;-83
2021/01/02 16:43:00;;;;;;;43.37;20.50;;;;;;;;;;4993699;28;20540;-83
2021/01/02 16:46:04;;;;;;;43.80;21.30;;;;;;;;;;4984538;28;20741;-82
2021/01/02 16:49:09;;;;;;;47.17;21.57;;;;;;;;;;4972993;28;20557;-83
2021/01/02 16:52:17;;;;;;;47.93;21.30;;;;;;;;;;4972817;28;20596;-83
2021/01/02 16:55:21;;;;;;;44.30;19.97;;;;;;;;;;4968461;28;20675;-83
2021/01/02 16:58:25;;;;;;;45.53;20.70;;;;;;;;;;4962348;28;20948;-83
2021/01/02 17:01:30;;;;;;;44.90;21.27;;;;;;;;;;5020737;28;21179;-83
2021/01/02 17:04:34;;;;;;;46.03;21.47;;;;;;;;;;5009458;28;20550;-81
2021/01/02 17:07:40;;;;;;;41.70;20.90;;;;;;;;;;4992707;28;21062;-83
2021/01/02 17:10:44;;;;;;;48.03;22.23;;;;;;;;;;4991975;28;21177;-83
2021/01/02 17:13:48;;;;;;;44.50;21.87;;;;;;;;;;5002658;28;20595;-83
2021/01/02 17:16:53;;;;;;;49.17;22.90;;;;;;;;;;5007988;28;21199;-83
2021/01/02 17:19:57;;;;;;;44.73;21.47;;;;;;;;;;4992744;28;20601;-83
2021/01/02 17:23:02;;;;;;;45.63;22.30;;;;;;;;;;5010327;28;20603;-83
2021/01/02 17:26:06;;;;;;;50.53;22.40;;;;;;;;;;4996757;28;20651;-82
2021/01/02 17:29:14;;;;;;;40.30;20.67;;;;;;;;;;4982979;28;20604;-82
2021/01/02 17:32:18;;;;;;;44.73;21.53;;;;;;;;;;4993871;28;20632;-83
2021/01/02 17:35:22;;;;;;;45.20;22.20;;;;;;;;;;4998545;28;20736;-82
2021/01/02 17:38:27;;;;;;;41.67;21.70;;;;;;;;;;5021879;28;20571;-83
2021/01/02 17:41:33;;;;;;;44.40;22.83;;;;;;;;;;5022515;28;20906;-84
2021/01/02 17:44:41;;;;;;;46.57;22.50;;;;;;;;;;5009396;28;20548;-85
2021/01/02 17:47:46;;;;;;;46.47;21.63;;;;;;;;;;5001241;28;20606;-85
2021/01/02 17:50:50;;;;;;;41.23;21.37;;;;;;;;;;5010858;28;20547;-84
2021/01/02 17:53:55;;;;;;;45.00;22.03;;;;;;;;;;5010561;28;20539;-84
2021/01/02 17:56:59;;;;;;;48.83;23.13;;;;;;;;;;4972094;28;20544;-84
2021/01/02 18:00:04;;;;;;;48.37;21.73;;;;;;;;;;4986524;28;20595;-84
2021/01/02 18:03:16;;;;;;;47.13;22.80;;;;;;;;;;4983629;28;20604;-84
2021/01/02 18:06:26;;;;;;;43.87;21.57;;;;;;;;;;4967510;28;20651;-84